<?xml version="1.0" encoding="UTF-8" standalone="no" ?>
<gpx xmlns="http://www.topografix.com/GPX/1/1" xmlns:xsi="http://www.w3.org/2001/XMLSchema-instance" xsi:schemaLocation="http://www.topografix.com/GPX/1/1 http://www.topografix.com/GPX/1/1/gpx.xsd" version="1.1" creator="VisuGPX - https://www.visugpx.com">
  <metadata>
    <name>Autour De Boissy-l'Aillerie_24/04/2022 à 13h50</name>
    <desc><![CDATA[15.7Km - 3h08 - 5 Km/h]]></desc>
  </metadata>
  <trk>
    <name><![CDATA[Rando du 24/04/2022_Autour De Boissy-l'Aillerie ]]></name>
    <trkseg>
      <trkpt lat="49.07585" lon="2.02614">
        <ele>41</ele>
        <time>2022-04-24T11:52:07.187Z</time>
      </trkpt>
      <trkpt lat="49.07599" lon="2.02617">
        <ele>41</ele>
        <time>2022-04-24T11:52:20.507Z</time>
      </trkpt>
      <trkpt lat="49.07599" lon="2.02617">
        <ele>41.3</ele>
        <time>2022-04-24T11:52:20.707Z</time>
      </trkpt>
      <trkpt lat="49.07599" lon="2.02628">
        <ele>41.3</ele>
        <time>2022-04-24T11:52:27.511Z</time>
      </trkpt>
      <trkpt lat="49.07591" lon="2.02666">
        <ele>41</ele>
        <time>2022-04-24T11:52:48.200Z</time>
      </trkpt>
      <trkpt lat="49.07584" lon="2.02696">
        <ele>41</ele>
        <time>2022-04-24T11:53:04.053Z</time>
      </trkpt>
      <trkpt lat="49.0757" lon="2.02765">
        <ele>41</ele>
        <time>2022-04-24T11:53:40.299Z</time>
      </trkpt>
      <trkpt lat="49.07559" lon="2.02821">
        <ele>41.8</ele>
        <time>2022-04-24T11:54:09.939Z</time>
      </trkpt>
      <trkpt lat="49.07542" lon="2.02901">
        <ele>41.8</ele>
        <time>2022-04-24T11:54:52.335Z</time>
      </trkpt>
      <trkpt lat="49.0754" lon="2.02909">
        <ele>41.8</ele>
        <time>2022-04-24T11:54:57.060Z</time>
      </trkpt>
      <trkpt lat="49.07539" lon="2.02921">
        <ele>41.8</ele>
        <time>2022-04-24T11:55:03.224Z</time>
      </trkpt>
      <trkpt lat="49.07539" lon="2.02923">
        <ele>41.8</ele>
        <time>2022-04-24T11:55:04.137Z</time>
      </trkpt>
      <trkpt lat="49.07545" lon="2.02923">
        <ele>42</ele>
        <time>2022-04-24T11:55:08.998Z</time>
      </trkpt>
      <trkpt lat="49.07551" lon="2.02922">
        <ele>42</ele>
        <time>2022-04-24T11:55:13.369Z</time>
      </trkpt>
      <trkpt lat="49.07564" lon="2.02917">
        <ele>42.3</ele>
        <time>2022-04-24T11:55:24.070Z</time>
      </trkpt>
      <trkpt lat="49.07589" lon="2.02909">
        <ele>43.3</ele>
        <time>2022-04-24T11:55:43.329Z</time>
      </trkpt>
      <trkpt lat="49.07617" lon="2.02899">
        <ele>45.8</ele>
        <time>2022-04-24T11:56:05.716Z</time>
      </trkpt>
      <trkpt lat="49.07635" lon="2.02893">
        <ele>47.5</ele>
        <time>2022-04-24T11:56:19.930Z</time>
      </trkpt>
      <trkpt lat="49.07649" lon="2.02892">
        <ele>48.8</ele>
        <time>2022-04-24T11:56:30.381Z</time>
      </trkpt>
      <trkpt lat="49.07653" lon="2.02892">
        <ele>49</ele>
        <time>2022-04-24T11:56:33.644Z</time>
      </trkpt>
      <trkpt lat="49.07656" lon="2.02893">
        <ele>49.3</ele>
        <time>2022-04-24T11:56:36.907Z</time>
      </trkpt>
      <trkpt lat="49.0766" lon="2.02895">
        <ele>49.8</ele>
        <time>2022-04-24T11:56:40.322Z</time>
      </trkpt>
      <trkpt lat="49.07673" lon="2.02902">
        <ele>51</ele>
        <time>2022-04-24T11:56:52.460Z</time>
      </trkpt>
      <trkpt lat="49.07673" lon="2.02902">
        <ele>51</ele>
        <time>2022-04-24T11:56:52.460Z</time>
      </trkpt>
      <trkpt lat="49.07701" lon="2.0294">
        <ele>54.5</ele>
        <time>2022-04-24T11:57:25.302Z</time>
      </trkpt>
      <trkpt lat="49.0771" lon="2.02962">
        <ele>55.8</ele>
        <time>2022-04-24T11:57:39.016Z</time>
      </trkpt>
      <trkpt lat="49.0772" lon="2.02982">
        <ele>57.3</ele>
        <time>2022-04-24T11:57:52.292Z</time>
      </trkpt>
      <trkpt lat="49.07727" lon="2.02999">
        <ele>58.5</ele>
        <time>2022-04-24T11:58:02.976Z</time>
      </trkpt>
      <trkpt lat="49.07735" lon="2.0302">
        <ele>59.5</ele>
        <time>2022-04-24T11:58:15.443Z</time>
      </trkpt>
      <trkpt lat="49.07735" lon="2.03021">
        <ele>59.5</ele>
        <time>2022-04-24T11:58:15.729Z</time>
      </trkpt>
      <trkpt lat="49.07745" lon="2.03029">
        <ele>61</ele>
        <time>2022-04-24T11:58:24.710Z</time>
      </trkpt>
      <trkpt lat="49.07748" lon="2.0303">
        <ele>61.5</ele>
        <time>2022-04-24T11:58:27.433Z</time>
      </trkpt>
      <trkpt lat="49.07759" lon="2.03035">
        <ele>62</ele>
        <time>2022-04-24T11:58:36.198Z</time>
      </trkpt>
      <trkpt lat="49.0777" lon="2.03039">
        <ele>62.5</ele>
        <time>2022-04-24T11:58:45.130Z</time>
      </trkpt>
      <trkpt lat="49.07774" lon="2.03041">
        <ele>62.8</ele>
        <time>2022-04-24T11:58:48.525Z</time>
      </trkpt>
      <trkpt lat="49.07779" lon="2.03043">
        <ele>62.8</ele>
        <time>2022-04-24T11:58:52.399Z</time>
      </trkpt>
      <trkpt lat="49.07816" lon="2.03057">
        <ele>64.3</ele>
        <time>2022-04-24T11:59:19.510Z</time>
      </trkpt>
      <trkpt lat="49.07857" lon="2.03073">
        <ele>66.5</ele>
        <time>2022-04-24T11:59:50.740Z</time>
      </trkpt>
      <trkpt lat="49.07869" lon="2.03075">
        <ele>66.8</ele>
        <time>2022-04-24T11:59:58.854Z</time>
      </trkpt>
      <trkpt lat="49.07886" lon="2.0308">
        <ele>128</ele>
        <time>2022-04-24T12:00:11.890Z</time>
      </trkpt>
      <trkpt lat="49.07905" lon="2.0308">
        <ele>68.3</ele>
        <time>2022-04-24T12:00:25.305Z</time>
      </trkpt>
      <trkpt lat="49.07912" lon="2.03079">
        <ele>68.8</ele>
        <time>2022-04-24T12:00:30.823Z</time>
      </trkpt>
      <trkpt lat="49.07942" lon="2.03078">
        <ele>69.8</ele>
        <time>2022-04-24T12:00:52.262Z</time>
      </trkpt>
      <trkpt lat="49.07949" lon="2.03077">
        <ele>70.3</ele>
        <time>2022-04-24T12:00:56.763Z</time>
      </trkpt>
      <trkpt lat="49.07979" lon="2.03082">
        <ele>71.8</ele>
        <time>2022-04-24T12:01:18.383Z</time>
      </trkpt>
      <trkpt lat="49.07992" lon="2.03088">
        <ele>72.5</ele>
        <time>2022-04-24T12:01:28.043Z</time>
      </trkpt>
      <trkpt lat="49.07993" lon="2.03086">
        <ele>72.5</ele>
        <time>2022-04-24T12:01:29.531Z</time>
      </trkpt>
      <trkpt lat="49.08001" lon="2.03077">
        <ele>73</ele>
        <time>2022-04-24T12:01:36.065Z</time>
      </trkpt>
      <trkpt lat="49.08011" lon="2.03073">
        <ele>73.3</ele>
        <time>2022-04-24T12:01:43.780Z</time>
      </trkpt>
      <trkpt lat="49.08016" lon="2.03066">
        <ele>73.3</ele>
        <time>2022-04-24T12:01:48.025Z</time>
      </trkpt>
      <trkpt lat="49.08049" lon="2.03017">
        <ele>74</ele>
        <time>2022-04-24T12:02:19.680Z</time>
      </trkpt>
      <trkpt lat="49.08097" lon="2.02944">
        <ele>75</ele>
        <time>2022-04-24T12:03:05.858Z</time>
      </trkpt>
      <trkpt lat="49.08104" lon="2.02934">
        <ele>75.3</ele>
        <time>2022-04-24T12:03:12.419Z</time>
      </trkpt>
      <trkpt lat="49.08127" lon="2.02917">
        <ele>76.3</ele>
        <time>2022-04-24T12:03:30.341Z</time>
      </trkpt>
      <trkpt lat="49.08128" lon="2.02916">
        <ele>76.5</ele>
        <time>2022-04-24T12:03:31.190Z</time>
      </trkpt>
      <trkpt lat="49.08153" lon="2.02855">
        <ele>74.3</ele>
        <time>2022-04-24T12:04:04.057Z</time>
      </trkpt>
      <trkpt lat="49.0816" lon="2.02843">
        <ele>73.8</ele>
        <time>2022-04-24T12:04:11.183Z</time>
      </trkpt>
      <trkpt lat="49.08183" lon="2.02799">
        <ele>72.3</ele>
        <time>2022-04-24T12:04:36.891Z</time>
      </trkpt>
      <trkpt lat="49.08199" lon="2.02785">
        <ele>71.8</ele>
        <time>2022-04-24T12:04:49.608Z</time>
      </trkpt>
      <trkpt lat="49.08227" lon="2.02758">
        <ele>71</ele>
        <time>2022-04-24T12:05:12.481Z</time>
      </trkpt>
      <trkpt lat="49.08243" lon="2.02744">
        <ele>70.5</ele>
        <time>2022-04-24T12:05:24.875Z</time>
      </trkpt>
      <trkpt lat="49.08268" lon="2.02721">
        <ele>70</ele>
        <time>2022-04-24T12:05:45.230Z</time>
      </trkpt>
      <trkpt lat="49.08273" lon="2.02707">
        <ele>70.3</ele>
        <time>2022-04-24T12:05:52.366Z</time>
      </trkpt>
      <trkpt lat="49.08353" lon="2.02473">
        <ele>75.8</ele>
        <time>2022-04-24T12:07:52.101Z</time>
      </trkpt>
      <trkpt lat="49.08353" lon="2.02468">
        <ele>75.8</ele>
        <time>2022-04-24T12:07:54.415Z</time>
      </trkpt>
      <trkpt lat="49.08353" lon="2.02461">
        <ele>76</ele>
        <time>2022-04-24T12:07:57.502Z</time>
      </trkpt>
      <trkpt lat="49.08345" lon="2.02427">
        <ele>76.8</ele>
        <time>2022-04-24T12:08:13.890Z</time>
      </trkpt>
      <trkpt lat="49.08343" lon="2.02382">
        <ele>77.8</ele>
        <time>2022-04-24T12:08:34.486Z</time>
      </trkpt>
      <trkpt lat="49.08344" lon="2.0237">
        <ele>78</ele>
        <time>2022-04-24T12:08:43.213Z</time>
      </trkpt>
      <trkpt lat="49.08347" lon="2.02334">
        <ele>79</ele>
        <time>2022-04-24T12:09:09.071Z</time>
      </trkpt>
      <trkpt lat="49.08351" lon="2.02312">
        <ele>79.3</ele>
        <time>2022-04-24T12:09:25.645Z</time>
      </trkpt>
      <trkpt lat="49.08356" lon="2.02287">
        <ele>79.8</ele>
        <time>2022-04-24T12:09:45.106Z</time>
      </trkpt>
      <trkpt lat="49.08371" lon="2.02242">
        <ele>80.5</ele>
        <time>2022-04-24T12:10:21.367Z</time>
      </trkpt>
      <trkpt lat="49.08374" lon="2.02237">
        <ele>80.5</ele>
        <time>2022-04-24T12:10:24.491Z</time>
      </trkpt>
      <trkpt lat="49.0839" lon="2.02202">
        <ele>81.5</ele>
        <time>2022-04-24T12:10:46.979Z</time>
      </trkpt>
      <trkpt lat="49.08409" lon="2.02172">
        <ele>82.5</ele>
        <time>2022-04-24T12:11:08.133Z</time>
      </trkpt>
      <trkpt lat="49.08431" lon="2.02146">
        <ele>83.3</ele>
        <time>2022-04-24T12:11:30.240Z</time>
      </trkpt>
      <trkpt lat="49.08457" lon="2.02118">
        <ele>84.3</ele>
        <time>2022-04-24T12:11:55.480Z</time>
      </trkpt>
      <trkpt lat="49.08477" lon="2.02109">
        <ele>84.8</ele>
        <time>2022-04-24T12:12:12.009Z</time>
      </trkpt>
      <trkpt lat="49.08486" lon="2.02103">
        <ele>85</ele>
        <time>2022-04-24T12:12:20.233Z</time>
      </trkpt>
      <trkpt lat="49.08517" lon="2.02094">
        <ele>86</ele>
        <time>2022-04-24T12:12:44.600Z</time>
      </trkpt>
      <trkpt lat="49.08553" lon="2.02091">
        <ele>87</ele>
        <time>2022-04-24T12:13:13.210Z</time>
      </trkpt>
      <trkpt lat="49.08589" lon="2.02099">
        <ele>87.8</ele>
        <time>2022-04-24T12:13:42.089Z</time>
      </trkpt>
      <trkpt lat="49.08623" lon="2.02118">
        <ele>87.8</ele>
        <time>2022-04-24T12:14:10.851Z</time>
      </trkpt>
      <trkpt lat="49.08651" lon="2.02141">
        <ele>88.3</ele>
        <time>2022-04-24T12:14:36.292Z</time>
      </trkpt>
      <trkpt lat="49.08667" lon="2.02158">
        <ele>88.8</ele>
        <time>2022-04-24T12:14:51.526Z</time>
      </trkpt>
      <trkpt lat="49.08719" lon="2.02235">
        <ele>88.8</ele>
        <time>2022-04-24T12:15:48.822Z</time>
      </trkpt>
      <trkpt lat="49.08731" lon="2.0224">
        <ele>88.8</ele>
        <time>2022-04-24T12:15:58.754Z</time>
      </trkpt>
      <trkpt lat="49.08738" lon="2.02206">
        <ele>89</ele>
        <time>2022-04-24T12:16:19.444Z</time>
      </trkpt>
      <trkpt lat="49.08746" lon="2.02171">
        <ele>89.8</ele>
        <time>2022-04-24T12:16:40.599Z</time>
      </trkpt>
      <trkpt lat="49.08776" lon="2.02105">
        <ele>90.3</ele>
        <time>2022-04-24T12:17:27.011Z</time>
      </trkpt>
      <trkpt lat="49.08802" lon="2.02061">
        <ele>90.5</ele>
        <time>2022-04-24T12:18:00.837Z</time>
      </trkpt>
      <trkpt lat="49.08831" lon="2.02027">
        <ele>90.8</ele>
        <time>2022-04-24T12:18:32.950Z</time>
      </trkpt>
      <trkpt lat="49.08844" lon="2.02016">
        <ele>90.8</ele>
        <time>2022-04-24T12:18:45.650Z</time>
      </trkpt>
      <trkpt lat="49.08865" lon="2.01997">
        <ele>90.8</ele>
        <time>2022-04-24T12:19:07.362Z</time>
      </trkpt>
      <trkpt lat="49.08912" lon="2.01972">
        <ele>90.5</ele>
        <time>2022-04-24T12:19:51.106Z</time>
      </trkpt>
      <trkpt lat="49.08929" lon="2.01968">
        <ele>90.3</ele>
        <time>2022-04-24T12:20:02.951Z</time>
      </trkpt>
      <trkpt lat="49.08969" lon="2.01957">
        <ele>90.3</ele>
        <time>2022-04-24T12:20:31.365Z</time>
      </trkpt>
      <trkpt lat="49.09026" lon="2.01957">
        <ele>90.3</ele>
        <time>2022-04-24T12:21:10.654Z</time>
      </trkpt>
      <trkpt lat="49.09087" lon="2.01957">
        <ele>90.3</ele>
        <time>2022-04-24T12:21:53.490Z</time>
      </trkpt>
      <trkpt lat="49.09171" lon="2.01974">
        <ele>91</ele>
        <time>2022-04-24T12:23:02.371Z</time>
      </trkpt>
      <trkpt lat="49.0927" lon="2.01995">
        <ele>92</ele>
        <time>2022-04-24T12:24:25.080Z</time>
      </trkpt>
      <trkpt lat="49.09415" lon="2.02053">
        <ele>93.5</ele>
        <time>2022-04-24T12:26:27.326Z</time>
      </trkpt>
      <trkpt lat="49.09509" lon="2.02089">
        <ele>94.8</ele>
        <time>2022-04-24T12:27:46.986Z</time>
      </trkpt>
      <trkpt lat="49.09595" lon="2.02151">
        <ele>94</ele>
        <time>2022-04-24T12:29:05.171Z</time>
      </trkpt>
      <trkpt lat="49.09708" lon="2.02211">
        <ele>95.5</ele>
        <time>2022-04-24T12:30:43.364Z</time>
      </trkpt>
      <trkpt lat="49.09754" lon="2.02228">
        <ele>95</ele>
        <time>2022-04-24T12:31:21.867Z</time>
      </trkpt>
      <trkpt lat="49.09807" lon="2.02248">
        <ele>94.8</ele>
        <time>2022-04-24T12:32:07.230Z</time>
      </trkpt>
      <trkpt lat="49.09835" lon="2.02259">
        <ele>94.8</ele>
        <time>2022-04-24T12:32:30.553Z</time>
      </trkpt>
      <trkpt lat="49.10016" lon="2.02282">
        <ele>92.8</ele>
        <time>2022-04-24T12:34:59.500Z</time>
      </trkpt>
      <trkpt lat="49.10125" lon="2.02295">
        <ele>92.5</ele>
        <time>2022-04-24T12:36:28.805Z</time>
      </trkpt>
      <trkpt lat="49.10362" lon="2.02327">
        <ele>95.3</ele>
        <time>2022-04-24T12:39:44.145Z</time>
      </trkpt>
      <trkpt lat="49.10397" lon="2.02343">
        <ele>95.5</ele>
        <time>2022-04-24T12:40:14.275Z</time>
      </trkpt>
      <trkpt lat="49.10513" lon="2.0238">
        <ele>96</ele>
        <time>2022-04-24T12:41:51.422Z</time>
      </trkpt>
      <trkpt lat="49.10558" lon="2.02399">
        <ele>96.5</ele>
        <time>2022-04-24T12:42:29.799Z</time>
      </trkpt>
      <trkpt lat="49.10632" lon="2.02434">
        <ele>97.8</ele>
        <time>2022-04-24T12:43:32.819Z</time>
      </trkpt>
      <trkpt lat="49.10668" lon="2.02444">
        <ele>98.3</ele>
        <time>2022-04-24T12:44:03.146Z</time>
      </trkpt>
      <trkpt lat="49.10685" lon="2.02445">
        <ele>99</ele>
        <time>2022-04-24T12:44:17.346Z</time>
      </trkpt>
      <trkpt lat="49.10906" lon="2.02461">
        <ele>105.8</ele>
        <time>2022-04-24T12:47:18.691Z</time>
      </trkpt>
      <trkpt lat="49.10907" lon="2.02461">
        <ele>106</ele>
        <time>2022-04-24T12:47:19.676Z</time>
      </trkpt>
      <trkpt lat="49.10908" lon="2.02443">
        <ele>106.3</ele>
        <time>2022-04-24T12:47:29.580Z</time>
      </trkpt>
      <trkpt lat="49.10913" lon="2.02408">
        <ele>106.8</ele>
        <time>2022-04-24T12:47:48.477Z</time>
      </trkpt>
      <trkpt lat="49.10917" lon="2.02381">
        <ele>107</ele>
        <time>2022-04-24T12:48:01.521Z</time>
      </trkpt>
      <trkpt lat="49.10922" lon="2.02345">
        <ele>107.8</ele>
        <time>2022-04-24T12:48:18.995Z</time>
      </trkpt>
      <trkpt lat="49.10928" lon="2.02306">
        <ele>108.3</ele>
        <time>2022-04-24T12:48:37.909Z</time>
      </trkpt>
      <trkpt lat="49.10931" lon="2.02289">
        <ele>108.3</ele>
        <time>2022-04-24T12:48:46.139Z</time>
      </trkpt>
      <trkpt lat="49.10952" lon="2.02134">
        <ele>108.3</ele>
        <time>2022-04-24T12:50:01.045Z</time>
      </trkpt>
      <trkpt lat="49.10958" lon="2.02088">
        <ele>108</ele>
        <time>2022-04-24T12:50:23.188Z</time>
      </trkpt>
      <trkpt lat="49.10962" lon="2.02034">
        <ele>107.3</ele>
        <time>2022-04-24T12:50:48.732Z</time>
      </trkpt>
      <trkpt lat="49.10963" lon="2.02034">
        <ele>107.3</ele>
        <time>2022-04-24T12:50:48.953Z</time>
      </trkpt>
      <trkpt lat="49.1099" lon="2.02045">
        <ele>108.8</ele>
        <time>2022-04-24T12:51:09.185Z</time>
      </trkpt>
      <trkpt lat="49.11102" lon="2.02053">
        <ele>115.8</ele>
        <time>2022-04-24T12:52:57.771Z</time>
      </trkpt>
      <trkpt lat="49.11233" lon="2.02062">
        <ele>124</ele>
        <time>2022-04-24T12:55:05.183Z</time>
      </trkpt>
      <trkpt lat="49.11515" lon="2.02081">
        <ele>142</ele>
        <time>2022-04-24T12:59:39.230Z</time>
      </trkpt>
      <trkpt lat="49.11538" lon="2.01979">
        <ele>143.5</ele>
        <time>2022-04-24T13:00:47.263Z</time>
      </trkpt>
      <trkpt lat="49.11531" lon="2.01944">
        <ele>143.5</ele>
        <time>2022-04-24T13:01:07.084Z</time>
      </trkpt>
      <trkpt lat="49.11531" lon="2.01943">
        <ele>143.8</ele>
        <time>2022-04-24T13:01:07.933Z</time>
      </trkpt>
      <trkpt lat="49.11529" lon="2.01929">
        <ele>143.8</ele>
        <time>2022-04-24T13:01:15.175Z</time>
      </trkpt>
      <trkpt lat="49.11528" lon="2.01929">
        <ele>143.8</ele>
        <time>2022-04-24T13:01:16.417Z</time>
      </trkpt>
      <trkpt lat="49.11526" lon="2.01926">
        <ele>143.8</ele>
        <time>2022-04-24T13:01:18.639Z</time>
      </trkpt>
      <trkpt lat="49.11524" lon="2.0191">
        <ele>143.8</ele>
        <time>2022-04-24T13:01:27.564Z</time>
      </trkpt>
      <trkpt lat="49.11513" lon="2.01789">
        <ele>145.8</ele>
        <time>2022-04-24T13:02:33.824Z</time>
      </trkpt>
      <trkpt lat="49.11513" lon="2.01777">
        <ele>145.8</ele>
        <time>2022-04-24T13:02:40.111Z</time>
      </trkpt>
      <trkpt lat="49.11514" lon="2.01774">
        <ele>145.8</ele>
        <time>2022-04-24T13:02:42.077Z</time>
      </trkpt>
      <trkpt lat="49.11515" lon="2.0177">
        <ele>146</ele>
        <time>2022-04-24T13:02:44.249Z</time>
      </trkpt>
      <trkpt lat="49.1152" lon="2.01761">
        <ele>146.3</ele>
        <time>2022-04-24T13:02:50.484Z</time>
      </trkpt>
      <trkpt lat="49.11539" lon="2.01743">
        <ele>146.8</ele>
        <time>2022-04-24T13:03:08.696Z</time>
      </trkpt>
      <trkpt lat="49.11562" lon="2.0172">
        <ele>147.8</ele>
        <time>2022-04-24T13:03:31.094Z</time>
      </trkpt>
      <trkpt lat="49.11561" lon="2.01719">
        <ele>147.5</ele>
        <time>2022-04-24T13:03:32.028Z</time>
      </trkpt>
      <trkpt lat="49.11549" lon="2.01705">
        <ele>147.3</ele>
        <time>2022-04-24T13:03:43.913Z</time>
      </trkpt>
      <trkpt lat="49.11545" lon="2.017">
        <ele>147.3</ele>
        <time>2022-04-24T13:03:48.810Z</time>
      </trkpt>
      <trkpt lat="49.11535" lon="2.0169">
        <ele>147</ele>
        <time>2022-04-24T13:03:57.840Z</time>
      </trkpt>
      <trkpt lat="49.115" lon="2.01647">
        <ele>145.5</ele>
        <time>2022-04-24T13:04:34.207Z</time>
      </trkpt>
      <trkpt lat="49.11497" lon="2.01643">
        <ele>145</ele>
        <time>2022-04-24T13:04:37.784Z</time>
      </trkpt>
      <trkpt lat="49.11474" lon="2.01616">
        <ele>143</ele>
        <time>2022-04-24T13:05:01.820Z</time>
      </trkpt>
      <trkpt lat="49.1145" lon="2.01587">
        <ele>141</ele>
        <time>2022-04-24T13:05:27.996Z</time>
      </trkpt>
      <trkpt lat="49.11442" lon="2.01581">
        <ele>140.3</ele>
        <time>2022-04-24T13:05:35.144Z</time>
      </trkpt>
      <trkpt lat="49.11427" lon="2.01572">
        <ele>139</ele>
        <time>2022-04-24T13:05:48.644Z</time>
      </trkpt>
      <trkpt lat="49.11425" lon="2.01571">
        <ele>139</ele>
        <time>2022-04-24T13:05:50.530Z</time>
      </trkpt>
      <trkpt lat="49.11417" lon="2.01568">
        <ele>138.3</ele>
        <time>2022-04-24T13:05:57.950Z</time>
      </trkpt>
      <trkpt lat="49.11407" lon="2.01565">
        <ele>137.3</ele>
        <time>2022-04-24T13:06:06.348Z</time>
      </trkpt>
      <trkpt lat="49.11348" lon="2.01556">
        <ele>132</ele>
        <time>2022-04-24T13:06:56.221Z</time>
      </trkpt>
      <trkpt lat="49.11298" lon="2.01545">
        <ele>128.5</ele>
        <time>2022-04-24T13:07:44.691Z</time>
      </trkpt>
      <trkpt lat="49.11297" lon="2.01545">
        <ele>128.5</ele>
        <time>2022-04-24T13:07:45.949Z</time>
      </trkpt>
      <trkpt lat="49.11278" lon="2.0154">
        <ele>127.3</ele>
        <time>2022-04-24T13:08:04.085Z</time>
      </trkpt>
      <trkpt lat="49.11256" lon="2.01535">
        <ele>125.8</ele>
        <time>2022-04-24T13:08:26.125Z</time>
      </trkpt>
      <trkpt lat="49.11179" lon="2.01514">
        <ele>121.5</ele>
        <time>2022-04-24T13:09:40.894Z</time>
      </trkpt>
      <trkpt lat="49.11169" lon="2.0151">
        <ele>120.8</ele>
        <time>2022-04-24T13:09:48.848Z</time>
      </trkpt>
      <trkpt lat="49.1116" lon="2.01506">
        <ele>120.3</ele>
        <time>2022-04-24T13:09:55.843Z</time>
      </trkpt>
      <trkpt lat="49.1114" lon="2.01495">
        <ele>118.8</ele>
        <time>2022-04-24T13:10:11.933Z</time>
      </trkpt>
      <trkpt lat="49.11134" lon="2.01491">
        <ele>118.3</ele>
        <time>2022-04-24T13:10:17.120Z</time>
      </trkpt>
      <trkpt lat="49.11124" lon="2.01484">
        <ele>117.5</ele>
        <time>2022-04-24T13:10:25.452Z</time>
      </trkpt>
      <trkpt lat="49.11096" lon="2.01455">
        <ele>116</ele>
        <time>2022-04-24T13:10:51.116Z</time>
      </trkpt>
      <trkpt lat="49.11016" lon="2.01362">
        <ele>114</ele>
        <time>2022-04-24T13:12:07.550Z</time>
      </trkpt>
      <trkpt lat="49.11013" lon="2.01358">
        <ele>113.8</ele>
        <time>2022-04-24T13:12:10.995Z</time>
      </trkpt>
      <trkpt lat="49.10997" lon="2.01338">
        <ele>113.8</ele>
        <time>2022-04-24T13:12:28.564Z</time>
      </trkpt>
      <trkpt lat="49.10989" lon="2.01325">
        <ele>113.5</ele>
        <time>2022-04-24T13:12:38.603Z</time>
      </trkpt>
      <trkpt lat="49.10977" lon="2.013">
        <ele>112.8</ele>
        <time>2022-04-24T13:12:56.230Z</time>
      </trkpt>
      <trkpt lat="49.10967" lon="2.01257">
        <ele>112</ele>
        <time>2022-04-24T13:13:21.783Z</time>
      </trkpt>
      <trkpt lat="49.10963" lon="2.0124">
        <ele>112</ele>
        <time>2022-04-24T13:13:32.006Z</time>
      </trkpt>
      <trkpt lat="49.1096" lon="2.01227">
        <ele>112</ele>
        <time>2022-04-24T13:13:39.538Z</time>
      </trkpt>
      <trkpt lat="49.10955" lon="2.01214">
        <ele>111.8</ele>
        <time>2022-04-24T13:13:48.060Z</time>
      </trkpt>
      <trkpt lat="49.10946" lon="2.01197">
        <ele>111.8</ele>
        <time>2022-04-24T13:14:00.247Z</time>
      </trkpt>
      <trkpt lat="49.10941" lon="2.01187">
        <ele>111.8</ele>
        <time>2022-04-24T13:14:07.468Z</time>
      </trkpt>
      <trkpt lat="49.10937" lon="2.0118">
        <ele>111.8</ele>
        <time>2022-04-24T13:14:13.011Z</time>
      </trkpt>
      <trkpt lat="49.10923" lon="2.01158">
        <ele>112</ele>
        <time>2022-04-24T13:14:29.762Z</time>
      </trkpt>
      <trkpt lat="49.10907" lon="2.01136">
        <ele>112</ele>
        <time>2022-04-24T13:14:48.357Z</time>
      </trkpt>
      <trkpt lat="49.10878" lon="2.01099">
        <ele>111.5</ele>
        <time>2022-04-24T13:15:20.591Z</time>
      </trkpt>
      <trkpt lat="49.10859" lon="2.01077">
        <ele>110.5</ele>
        <time>2022-04-24T13:15:39.692Z</time>
      </trkpt>
      <trkpt lat="49.10843" lon="2.01057">
        <ele>109.8</ele>
        <time>2022-04-24T13:15:56.720Z</time>
      </trkpt>
      <trkpt lat="49.10794" lon="2.01002">
        <ele>108.5</ele>
        <time>2022-04-24T13:16:45.389Z</time>
      </trkpt>
      <trkpt lat="49.10776" lon="2.00984">
        <ele>108</ele>
        <time>2022-04-24T13:17:02.149Z</time>
      </trkpt>
      <trkpt lat="49.10755" lon="2.00963">
        <ele>107.5</ele>
        <time>2022-04-24T13:17:22.539Z</time>
      </trkpt>
      <trkpt lat="49.10741" lon="2.00951">
        <ele>107</ele>
        <time>2022-04-24T13:17:35.868Z</time>
      </trkpt>
      <trkpt lat="49.10713" lon="2.0093">
        <ele>106.3</ele>
        <time>2022-04-24T13:18:00.757Z</time>
      </trkpt>
      <trkpt lat="49.10641" lon="2.00882">
        <ele>104.5</ele>
        <time>2022-04-24T13:19:03.303Z</time>
      </trkpt>
      <trkpt lat="49.10533" lon="2.00799">
        <ele>102.8</ele>
        <time>2022-04-24T13:20:40.413Z</time>
      </trkpt>
      <trkpt lat="49.10505" lon="2.00776">
        <ele>102.5</ele>
        <time>2022-04-24T13:21:05.754Z</time>
      </trkpt>
      <trkpt lat="49.10433" lon="2.00716">
        <ele>101.5</ele>
        <time>2022-04-24T13:22:11.670Z</time>
      </trkpt>
      <trkpt lat="49.10375" lon="2.00664">
        <ele>101.3</ele>
        <time>2022-04-24T13:23:06.017Z</time>
      </trkpt>
      <trkpt lat="49.10353" lon="2.00643">
        <ele>100.8</ele>
        <time>2022-04-24T13:23:26.495Z</time>
      </trkpt>
      <trkpt lat="49.10294" lon="2.0058">
        <ele>99</ele>
        <time>2022-04-24T13:24:24.226Z</time>
      </trkpt>
      <trkpt lat="49.10237" lon="2.00529">
        <ele>96.8</ele>
        <time>2022-04-24T13:25:17.358Z</time>
      </trkpt>
      <trkpt lat="49.10215" lon="2.00507">
        <ele>96</ele>
        <time>2022-04-24T13:25:38.791Z</time>
      </trkpt>
      <trkpt lat="49.10138" lon="2.00431">
        <ele>93.8</ele>
        <time>2022-04-24T13:26:52.232Z</time>
      </trkpt>
      <trkpt lat="49.10097" lon="2.00391">
        <ele>92.8</ele>
        <time>2022-04-24T13:27:31.001Z</time>
      </trkpt>
      <trkpt lat="49.10085" lon="2.00378">
        <ele>92.3</ele>
        <time>2022-04-24T13:27:42.607Z</time>
      </trkpt>
      <trkpt lat="49.10067" lon="2.00358">
        <ele>92</ele>
        <time>2022-04-24T13:28:00.988Z</time>
      </trkpt>
      <trkpt lat="49.10013" lon="2.00307">
        <ele>90.8</ele>
        <time>2022-04-24T13:28:51.803Z</time>
      </trkpt>
      <trkpt lat="49.09996" lon="2.00292">
        <ele>90.5</ele>
        <time>2022-04-24T13:29:07.553Z</time>
      </trkpt>
      <trkpt lat="49.09977" lon="2.00281">
        <ele>90.3</ele>
        <time>2022-04-24T13:29:23.619Z</time>
      </trkpt>
      <trkpt lat="49.09961" lon="2.00274">
        <ele>90</ele>
        <time>2022-04-24T13:29:37.515Z</time>
      </trkpt>
      <trkpt lat="49.09941" lon="2.00268">
        <ele>89.8</ele>
        <time>2022-04-24T13:29:53.883Z</time>
      </trkpt>
      <trkpt lat="49.09858" lon="2.00259">
        <ele>89.8</ele>
        <time>2022-04-24T13:31:00.589Z</time>
      </trkpt>
      <trkpt lat="49.09736" lon="2.00252">
        <ele>92</ele>
        <time>2022-04-24T13:32:38.937Z</time>
      </trkpt>
      <trkpt lat="49.09711" lon="2.0025">
        <ele>92.3</ele>
        <time>2022-04-24T13:32:58.899Z</time>
      </trkpt>
      <trkpt lat="49.09676" lon="2.00247">
        <ele>92.8</ele>
        <time>2022-04-24T13:33:26.985Z</time>
      </trkpt>
      <trkpt lat="49.09632" lon="2.00236">
        <ele>93</ele>
        <time>2022-04-24T13:34:02.972Z</time>
      </trkpt>
      <trkpt lat="49.09615" lon="2.0023">
        <ele>152</ele>
        <time>2022-04-24T13:34:17.161Z</time>
      </trkpt>
      <trkpt lat="49.09598" lon="2.00217">
        <ele>152</ele>
        <time>2022-04-24T13:34:30.161Z</time>
      </trkpt>
      <trkpt lat="49.09582" lon="2.002">
        <ele>152</ele>
        <time>2022-04-24T13:34:42.161Z</time>
      </trkpt>
      <trkpt lat="49.09568" lon="2.00184">
        <ele>152</ele>
        <time>2022-04-24T13:34:53.161Z</time>
      </trkpt>
      <trkpt lat="49.09552" lon="2.00166">
        <ele>152</ele>
        <time>2022-04-24T13:35:08.161Z</time>
      </trkpt>
      <trkpt lat="49.09537" lon="2.00149">
        <ele>152</ele>
        <time>2022-04-24T13:35:22.161Z</time>
      </trkpt>
      <trkpt lat="49.0952" lon="2.00137">
        <ele>152</ele>
        <time>2022-04-24T13:35:34.161Z</time>
      </trkpt>
      <trkpt lat="49.09502" lon="2.00124">
        <ele>87.3</ele>
        <time>2022-04-24T13:35:48.110Z</time>
      </trkpt>
      <trkpt lat="49.09474" lon="2.00112">
        <ele>87.3</ele>
        <time>2022-04-24T13:36:09.447Z</time>
      </trkpt>
      <trkpt lat="49.09445" lon="2.00106">
        <ele>87</ele>
        <time>2022-04-24T13:36:30.537Z</time>
      </trkpt>
      <trkpt lat="49.09398" lon="2.00091">
        <ele>86</ele>
        <time>2022-04-24T13:37:04.997Z</time>
      </trkpt>
      <trkpt lat="49.09378" lon="2.00082">
        <ele>85.3</ele>
        <time>2022-04-24T13:37:19.834Z</time>
      </trkpt>
      <trkpt lat="49.09371" lon="2.00078">
        <ele>85.3</ele>
        <time>2022-04-24T13:37:25.096Z</time>
      </trkpt>
      <trkpt lat="49.09353" lon="2.00074">
        <ele>84.8</ele>
        <time>2022-04-24T13:37:38.469Z</time>
      </trkpt>
      <trkpt lat="49.09303" lon="2.00063">
        <ele>83.8</ele>
        <time>2022-04-24T13:38:14.943Z</time>
      </trkpt>
      <trkpt lat="49.09257" lon="2.00057">
        <ele>83</ele>
        <time>2022-04-24T13:38:47.687Z</time>
      </trkpt>
      <trkpt lat="49.09224" lon="2.00055">
        <ele>85</ele>
        <time>2022-04-24T13:39:12.066Z</time>
      </trkpt>
      <trkpt lat="49.09208" lon="2.00056">
        <ele>86.3</ele>
        <time>2022-04-24T13:39:24.170Z</time>
      </trkpt>
      <trkpt lat="49.09197" lon="2.00056">
        <ele>87.5</ele>
        <time>2022-04-24T13:39:32.367Z</time>
      </trkpt>
      <trkpt lat="49.09177" lon="2.00061">
        <ele>89.5</ele>
        <time>2022-04-24T13:39:48.047Z</time>
      </trkpt>
      <trkpt lat="49.09142" lon="2.00076">
        <ele>93.5</ele>
        <time>2022-04-24T13:40:16.130Z</time>
      </trkpt>
      <trkpt lat="49.09087" lon="2.00121">
        <ele>97.8</ele>
        <time>2022-04-24T13:41:03.300Z</time>
      </trkpt>
      <trkpt lat="49.09077" lon="2.00135">
        <ele>98.3</ele>
        <time>2022-04-24T13:41:13.560Z</time>
      </trkpt>
      <trkpt lat="49.09071" lon="2.00141">
        <ele>98.5</ele>
        <time>2022-04-24T13:41:19.151Z</time>
      </trkpt>
      <trkpt lat="49.09063" lon="2.00155">
        <ele>99</ele>
        <time>2022-04-24T13:41:29.056Z</time>
      </trkpt>
      <trkpt lat="49.09051" lon="2.00179">
        <ele>99</ele>
        <time>2022-04-24T13:41:43.601Z</time>
      </trkpt>
      <trkpt lat="49.09037" lon="2.00193">
        <ele>98.8</ele>
        <time>2022-04-24T13:41:56.859Z</time>
      </trkpt>
      <trkpt lat="49.0903" lon="2.00197">
        <ele>98.8</ele>
        <time>2022-04-24T13:42:02.206Z</time>
      </trkpt>
      <trkpt lat="49.09026" lon="2.00199">
        <ele>98.8</ele>
        <time>2022-04-24T13:42:06.079Z</time>
      </trkpt>
      <trkpt lat="49.0896" lon="2.0021">
        <ele>98.3</ele>
        <time>2022-04-24T13:42:57.292Z</time>
      </trkpt>
      <trkpt lat="49.08923" lon="2.00222">
        <ele>98</ele>
        <time>2022-04-24T13:43:26.872Z</time>
      </trkpt>
      <trkpt lat="49.08903" lon="2.00224">
        <ele>96.8</ele>
        <time>2022-04-24T13:43:42.714Z</time>
      </trkpt>
      <trkpt lat="49.08888" lon="2.00235">
        <ele>95.8</ele>
        <time>2022-04-24T13:43:55.362Z</time>
      </trkpt>
      <trkpt lat="49.08816" lon="2.00274">
        <ele>92</ele>
        <time>2022-04-24T13:44:55.096Z</time>
      </trkpt>
      <trkpt lat="49.08769" lon="2.003">
        <ele>90.5</ele>
        <time>2022-04-24T13:45:33.933Z</time>
      </trkpt>
      <trkpt lat="49.08699" lon="2.00329">
        <ele>89.3</ele>
        <time>2022-04-24T13:46:29.857Z</time>
      </trkpt>
      <trkpt lat="49.08644" lon="2.00357">
        <ele>89.8</ele>
        <time>2022-04-24T13:47:15.445Z</time>
      </trkpt>
      <trkpt lat="49.086" lon="2.00375">
        <ele>91.8</ele>
        <time>2022-04-24T13:47:50.809Z</time>
      </trkpt>
      <trkpt lat="49.08587" lon="2.00385">
        <ele>92.3</ele>
        <time>2022-04-24T13:48:02.399Z</time>
      </trkpt>
      <trkpt lat="49.08583" lon="2.00388">
        <ele>92.3</ele>
        <time>2022-04-24T13:48:05.501Z</time>
      </trkpt>
      <trkpt lat="49.08579" lon="2.00393">
        <ele>92.3</ele>
        <time>2022-04-24T13:48:10.083Z</time>
      </trkpt>
      <trkpt lat="49.08572" lon="2.00408">
        <ele>92</ele>
        <time>2022-04-24T13:48:20.133Z</time>
      </trkpt>
      <trkpt lat="49.08554" lon="2.00451">
        <ele>90.8</ele>
        <time>2022-04-24T13:48:47.664Z</time>
      </trkpt>
      <trkpt lat="49.08548" lon="2.00468">
        <ele>90.3</ele>
        <time>2022-04-24T13:48:58.107Z</time>
      </trkpt>
      <trkpt lat="49.08524" lon="2.00527">
        <ele>87.8</ele>
        <time>2022-04-24T13:49:35.960Z</time>
      </trkpt>
      <trkpt lat="49.08509" lon="2.00545">
        <ele>87</ele>
        <time>2022-04-24T13:49:52.074Z</time>
      </trkpt>
      <trkpt lat="49.08481" lon="2.00582">
        <ele>83.5</ele>
        <time>2022-04-24T13:50:22.394Z</time>
      </trkpt>
      <trkpt lat="49.08473" lon="2.00585">
        <ele>83</ele>
        <time>2022-04-24T13:50:29.211Z</time>
      </trkpt>
      <trkpt lat="49.08464" lon="2.00584">
        <ele>82.3</ele>
        <time>2022-04-24T13:50:36.862Z</time>
      </trkpt>
      <trkpt lat="49.08455" lon="2.00581">
        <ele>81.8</ele>
        <time>2022-04-24T13:50:44.428Z</time>
      </trkpt>
      <trkpt lat="49.0845" lon="2.00582">
        <ele>81.5</ele>
        <time>2022-04-24T13:50:48.492Z</time>
      </trkpt>
      <trkpt lat="49.08446" lon="2.00584">
        <ele>81</ele>
        <time>2022-04-24T13:50:52.095Z</time>
      </trkpt>
      <trkpt lat="49.08442" lon="2.00588">
        <ele>80.5</ele>
        <time>2022-04-24T13:50:56.115Z</time>
      </trkpt>
      <trkpt lat="49.0844" lon="2.00592">
        <ele>80.3</ele>
        <time>2022-04-24T13:50:59.157Z</time>
      </trkpt>
      <trkpt lat="49.08438" lon="2.006">
        <ele>80</ele>
        <time>2022-04-24T13:51:03.724Z</time>
      </trkpt>
      <trkpt lat="49.08431" lon="2.00644">
        <ele>78.3</ele>
        <time>2022-04-24T13:51:28.309Z</time>
      </trkpt>
      <trkpt lat="49.08429" lon="2.00655">
        <ele>78</ele>
        <time>2022-04-24T13:51:34.167Z</time>
      </trkpt>
      <trkpt lat="49.08428" lon="2.0066">
        <ele>77.8</ele>
        <time>2022-04-24T13:51:37.473Z</time>
      </trkpt>
      <trkpt lat="49.08424" lon="2.00664">
        <ele>77.5</ele>
        <time>2022-04-24T13:51:41.000Z</time>
      </trkpt>
      <trkpt lat="49.0841" lon="2.0066">
        <ele>76.3</ele>
        <time>2022-04-24T13:51:52.830Z</time>
      </trkpt>
      <trkpt lat="49.08382" lon="2.0065">
        <ele>73.3</ele>
        <time>2022-04-24T13:52:17.301Z</time>
      </trkpt>
      <trkpt lat="49.08376" lon="2.00647">
        <ele>72.8</ele>
        <time>2022-04-24T13:52:22.189Z</time>
      </trkpt>
      <trkpt lat="49.08329" lon="2.00629">
        <ele>68.3</ele>
        <time>2022-04-24T13:53:02.409Z</time>
      </trkpt>
      <trkpt lat="49.08323" lon="2.00624">
        <ele>67.8</ele>
        <time>2022-04-24T13:53:08.282Z</time>
      </trkpt>
      <trkpt lat="49.08312" lon="2.00612">
        <ele>67.3</ele>
        <time>2022-04-24T13:53:19.293Z</time>
      </trkpt>
      <trkpt lat="49.08308" lon="2.00607">
        <ele>67</ele>
        <time>2022-04-24T13:53:23.845Z</time>
      </trkpt>
      <trkpt lat="49.08308" lon="2.00607">
        <ele>67</ele>
        <time>2022-04-24T13:53:23.845Z</time>
      </trkpt>
      <trkpt lat="49.08307" lon="2.00602">
        <ele>67.3</ele>
        <time>2022-04-24T13:53:26.491Z</time>
      </trkpt>
      <trkpt lat="49.08306" lon="2.00597">
        <ele>67.5</ele>
        <time>2022-04-24T13:53:29.970Z</time>
      </trkpt>
      <trkpt lat="49.08305" lon="2.0058">
        <ele>68.8</ele>
        <time>2022-04-24T13:53:40.383Z</time>
      </trkpt>
      <trkpt lat="49.08309" lon="2.00535">
        <ele>70.8</ele>
        <time>2022-04-24T13:54:08.009Z</time>
      </trkpt>
      <trkpt lat="49.08309" lon="2.00534">
        <ele>70.8</ele>
        <time>2022-04-24T13:54:08.427Z</time>
      </trkpt>
      <trkpt lat="49.0831" lon="2.00524">
        <ele>71.3</ele>
        <time>2022-04-24T13:54:14.316Z</time>
      </trkpt>
      <trkpt lat="49.08307" lon="2.00517">
        <ele>71.3</ele>
        <time>2022-04-24T13:54:19.267Z</time>
      </trkpt>
      <trkpt lat="49.08301" lon="2.00512">
        <ele>70.5</ele>
        <time>2022-04-24T13:54:25.988Z</time>
      </trkpt>
      <trkpt lat="49.08258" lon="2.00476">
        <ele>66.5</ele>
        <time>2022-04-24T13:55:10.738Z</time>
      </trkpt>
      <trkpt lat="49.08245" lon="2.00467">
        <ele>64.8</ele>
        <time>2022-04-24T13:55:23.210Z</time>
      </trkpt>
      <trkpt lat="49.0824" lon="2.00464">
        <ele>64</ele>
        <time>2022-04-24T13:55:28.036Z</time>
      </trkpt>
      <trkpt lat="49.08237" lon="2.00462">
        <ele>63.5</ele>
        <time>2022-04-24T13:55:31.370Z</time>
      </trkpt>
      <trkpt lat="49.08235" lon="2.00462">
        <ele>63.3</ele>
        <time>2022-04-24T13:55:32.828Z</time>
      </trkpt>
      <trkpt lat="49.08237" lon="2.00462">
        <ele>63.5</ele>
        <time>2022-04-24T13:55:34.286Z</time>
      </trkpt>
      <trkpt lat="49.08231" lon="2.00453">
        <ele>62.5</ele>
        <time>2022-04-24T13:55:41.401Z</time>
      </trkpt>
      <trkpt lat="49.0823" lon="2.00449">
        <ele>62.5</ele>
        <time>2022-04-24T13:55:43.490Z</time>
      </trkpt>
      <trkpt lat="49.08226" lon="2.00453">
        <ele>61.8</ele>
        <time>2022-04-24T13:55:47.478Z</time>
      </trkpt>
      <trkpt lat="49.08223" lon="2.00457">
        <ele>61.5</ele>
        <time>2022-04-24T13:55:50.575Z</time>
      </trkpt>
      <trkpt lat="49.08213" lon="2.00455">
        <ele>60</ele>
        <time>2022-04-24T13:55:58.717Z</time>
      </trkpt>
      <trkpt lat="49.08169" lon="2.00449">
        <ele>53.8</ele>
        <time>2022-04-24T13:56:34.650Z</time>
      </trkpt>
      <trkpt lat="49.08164" lon="2.00448">
        <ele>53.3</ele>
        <time>2022-04-24T13:56:38.541Z</time>
      </trkpt>
      <trkpt lat="49.08131" lon="2.00444">
        <ele>49.8</ele>
        <time>2022-04-24T13:57:05.711Z</time>
      </trkpt>
      <trkpt lat="49.08095" lon="2.0044">
        <ele>46</ele>
        <time>2022-04-24T13:57:34.322Z</time>
      </trkpt>
      <trkpt lat="49.08092" lon="2.00439">
        <ele>45.5</ele>
        <time>2022-04-24T13:57:36.766Z</time>
      </trkpt>
      <trkpt lat="49.08089" lon="2.00439">
        <ele>45.3</ele>
        <time>2022-04-24T13:57:39.692Z</time>
      </trkpt>
      <trkpt lat="49.08088" lon="2.00438">
        <ele>45</ele>
        <time>2022-04-24T13:57:40.448Z</time>
      </trkpt>
      <trkpt lat="49.0808" lon="2.00433">
        <ele>44.5</ele>
        <time>2022-04-24T13:57:46.915Z</time>
      </trkpt>
      <trkpt lat="49.08055" lon="2.00409">
        <ele>43.5</ele>
        <time>2022-04-24T13:58:09.787Z</time>
      </trkpt>
      <trkpt lat="49.08047" lon="2.00402">
        <ele>43.3</ele>
        <time>2022-04-24T13:58:16.810Z</time>
      </trkpt>
      <trkpt lat="49.08042" lon="2.00397">
        <ele>43</ele>
        <time>2022-04-24T13:58:21.574Z</time>
      </trkpt>
      <trkpt lat="49.08039" lon="2.00395">
        <ele>43</ele>
        <time>2022-04-24T13:58:24.257Z</time>
      </trkpt>
      <trkpt lat="49.08036" lon="2.00392">
        <ele>42.8</ele>
        <time>2022-04-24T13:58:26.651Z</time>
      </trkpt>
      <trkpt lat="49.08003" lon="2.00358">
        <ele>41.3</ele>
        <time>2022-04-24T13:58:57.286Z</time>
      </trkpt>
      <trkpt lat="49.07992" lon="2.00345">
        <ele>41.3</ele>
        <time>2022-04-24T13:59:08.377Z</time>
      </trkpt>
      <trkpt lat="49.07988" lon="2.00342">
        <ele>41.5</ele>
        <time>2022-04-24T13:59:11.416Z</time>
      </trkpt>
      <trkpt lat="49.0795" lon="2.00304">
        <ele>43</ele>
        <time>2022-04-24T13:59:46.537Z</time>
      </trkpt>
      <trkpt lat="49.07937" lon="2.0029">
        <ele>43.8</ele>
        <time>2022-04-24T13:59:58.829Z</time>
      </trkpt>
      <trkpt lat="49.0793" lon="2.00287">
        <ele>44.3</ele>
        <time>2022-04-24T14:00:04.526Z</time>
      </trkpt>
      <trkpt lat="49.07924" lon="2.00286">
        <ele>44.5</ele>
        <time>2022-04-24T14:00:08.528Z</time>
      </trkpt>
      <trkpt lat="49.07913" lon="2.00287">
        <ele>45</ele>
        <time>2022-04-24T14:00:17.316Z</time>
      </trkpt>
      <trkpt lat="49.07908" lon="2.00288">
        <ele>45</ele>
        <time>2022-04-24T14:00:21.397Z</time>
      </trkpt>
      <trkpt lat="49.07905" lon="2.00288">
        <ele>45.5</ele>
        <time>2022-04-24T14:00:23.781Z</time>
      </trkpt>
      <trkpt lat="49.07895" lon="2.00291">
        <ele>45.8</ele>
        <time>2022-04-24T14:00:31.306Z</time>
      </trkpt>
      <trkpt lat="49.07885" lon="2.00294">
        <ele>46.3</ele>
        <time>2022-04-24T14:00:39.077Z</time>
      </trkpt>
      <trkpt lat="49.0785" lon="2.00326">
        <ele>46</ele>
        <time>2022-04-24T14:01:10.755Z</time>
      </trkpt>
      <trkpt lat="49.0784" lon="2.00331">
        <ele>46</ele>
        <time>2022-04-24T14:01:18.571Z</time>
      </trkpt>
      <trkpt lat="49.07823" lon="2.00337">
        <ele>45.5</ele>
        <time>2022-04-24T14:01:31.925Z</time>
      </trkpt>
      <trkpt lat="49.0781" lon="2.00342">
        <ele>45.5</ele>
        <time>2022-04-24T14:01:42.297Z</time>
      </trkpt>
      <trkpt lat="49.07805" lon="2.00344">
        <ele>45.5</ele>
        <time>2022-04-24T14:01:46.225Z</time>
      </trkpt>
      <trkpt lat="49.07758" lon="2.00361">
        <ele>44.8</ele>
        <time>2022-04-24T14:02:23.701Z</time>
      </trkpt>
      <trkpt lat="49.07756" lon="2.00362">
        <ele>44.8</ele>
        <time>2022-04-24T14:02:25.429Z</time>
      </trkpt>
      <trkpt lat="49.07745" lon="2.00365">
        <ele>45</ele>
        <time>2022-04-24T14:02:33.748Z</time>
      </trkpt>
      <trkpt lat="49.07738" lon="2.00368">
        <ele>45</ele>
        <time>2022-04-24T14:02:39.470Z</time>
      </trkpt>
      <trkpt lat="49.07704" lon="2.00378">
        <ele>45.8</ele>
        <time>2022-04-24T14:03:05.940Z</time>
      </trkpt>
      <trkpt lat="49.0769" lon="2.00379">
        <ele>46.3</ele>
        <time>2022-04-24T14:03:16.237Z</time>
      </trkpt>
      <trkpt lat="49.0766" lon="2.00376">
        <ele>47.8</ele>
        <time>2022-04-24T14:03:38.038Z</time>
      </trkpt>
      <trkpt lat="49.07641" lon="2.00381">
        <ele>49</ele>
        <time>2022-04-24T14:03:52.554Z</time>
      </trkpt>
      <trkpt lat="49.07627" lon="2.00391">
        <ele>49</ele>
        <time>2022-04-24T14:04:03.849Z</time>
      </trkpt>
      <trkpt lat="49.07626" lon="2.00392">
        <ele>49</ele>
        <time>2022-04-24T14:04:04.439Z</time>
      </trkpt>
      <trkpt lat="49.07614" lon="2.00407">
        <ele>48.3</ele>
        <time>2022-04-24T14:04:16.216Z</time>
      </trkpt>
      <trkpt lat="49.07569" lon="2.00464">
        <ele>48</ele>
        <time>2022-04-24T14:04:59.023Z</time>
      </trkpt>
      <trkpt lat="49.07568" lon="2.00465">
        <ele>48</ele>
        <time>2022-04-24T14:05:00.218Z</time>
      </trkpt>
      <trkpt lat="49.07535" lon="2.00509">
        <ele>49.3</ele>
        <time>2022-04-24T14:05:34.210Z</time>
      </trkpt>
      <trkpt lat="49.07534" lon="2.00539">
        <ele>49.5</ele>
        <time>2022-04-24T14:05:49.173Z</time>
      </trkpt>
      <trkpt lat="49.07533" lon="2.00582">
        <ele>50</ele>
        <time>2022-04-24T14:06:10.959Z</time>
      </trkpt>
      <trkpt lat="49.07532" lon="2.00595">
        <ele>50.3</ele>
        <time>2022-04-24T14:06:17.592Z</time>
      </trkpt>
      <trkpt lat="49.07531" lon="2.00696">
        <ele>51.5</ele>
        <time>2022-04-24T14:07:08.458Z</time>
      </trkpt>
      <trkpt lat="49.07533" lon="2.00734">
        <ele>51.8</ele>
        <time>2022-04-24T14:07:27.039Z</time>
      </trkpt>
      <trkpt lat="49.07534" lon="2.00754">
        <ele>52</ele>
        <time>2022-04-24T14:07:37.122Z</time>
      </trkpt>
      <trkpt lat="49.07573" lon="2.00928">
        <ele>47.5</ele>
        <time>2022-04-24T14:09:08.289Z</time>
      </trkpt>
      <trkpt lat="49.07575" lon="2.00937">
        <ele>47.5</ele>
        <time>2022-04-24T14:09:12.534Z</time>
      </trkpt>
      <trkpt lat="49.07547" lon="2.01024">
        <ele>50.5</ele>
        <time>2022-04-24T14:10:00.858Z</time>
      </trkpt>
      <trkpt lat="49.07543" lon="2.01046">
        <ele>51.3</ele>
        <time>2022-04-24T14:10:11.902Z</time>
      </trkpt>
      <trkpt lat="49.07544" lon="2.0105">
        <ele>51.3</ele>
        <time>2022-04-24T14:10:13.765Z</time>
      </trkpt>
      <trkpt lat="49.07547" lon="2.01068">
        <ele>51.3</ele>
        <time>2022-04-24T14:10:22.844Z</time>
      </trkpt>
      <trkpt lat="49.07566" lon="2.01087">
        <ele>50</ele>
        <time>2022-04-24T14:10:39.526Z</time>
      </trkpt>
      <trkpt lat="49.0759" lon="2.01114">
        <ele>51.3</ele>
        <time>2022-04-24T14:11:01.801Z</time>
      </trkpt>
      <trkpt lat="49.07595" lon="2.01129">
        <ele>52.3</ele>
        <time>2022-04-24T14:11:10.076Z</time>
      </trkpt>
      <trkpt lat="49.07602" lon="2.01148">
        <ele>54</ele>
        <time>2022-04-24T14:11:21.261Z</time>
      </trkpt>
      <trkpt lat="49.07609" lon="2.01188">
        <ele>57</ele>
        <time>2022-04-24T14:11:41.194Z</time>
      </trkpt>
      <trkpt lat="49.07606" lon="2.01201">
        <ele>58.3</ele>
        <time>2022-04-24T14:11:48.386Z</time>
      </trkpt>
      <trkpt lat="49.07599" lon="2.01232">
        <ele>61.5</ele>
        <time>2022-04-24T14:12:05.801Z</time>
      </trkpt>
      <trkpt lat="49.07584" lon="2.01268">
        <ele>64.8</ele>
        <time>2022-04-24T14:12:27.865Z</time>
      </trkpt>
      <trkpt lat="49.0758" lon="2.01304">
        <ele>65.3</ele>
        <time>2022-04-24T14:12:47.211Z</time>
      </trkpt>
      <trkpt lat="49.07578" lon="2.01314">
        <ele>65.5</ele>
        <time>2022-04-24T14:12:52.561Z</time>
      </trkpt>
      <trkpt lat="49.07564" lon="2.01366">
        <ele>67.5</ele>
        <time>2022-04-24T14:13:22.206Z</time>
      </trkpt>
      <trkpt lat="49.0756" lon="2.01386">
        <ele>68</ele>
        <time>2022-04-24T14:13:33.358Z</time>
      </trkpt>
      <trkpt lat="49.07558" lon="2.01412">
        <ele>68.3</ele>
        <time>2022-04-24T14:13:47.149Z</time>
      </trkpt>
      <trkpt lat="49.07551" lon="2.01436">
        <ele>68.3</ele>
        <time>2022-04-24T14:14:00.315Z</time>
      </trkpt>
      <trkpt lat="49.0755" lon="2.01438">
        <ele>68.5</ele>
        <time>2022-04-24T14:14:01.790Z</time>
      </trkpt>
      <trkpt lat="49.07535" lon="2.01475">
        <ele>68.5</ele>
        <time>2022-04-24T14:14:23.827Z</time>
      </trkpt>
      <trkpt lat="49.07505" lon="2.01508">
        <ele>69.5</ele>
        <time>2022-04-24T14:14:52.472Z</time>
      </trkpt>
      <trkpt lat="49.07478" lon="2.01547">
        <ele>72.3</ele>
        <time>2022-04-24T14:15:21.614Z</time>
      </trkpt>
      <trkpt lat="49.07455" lon="2.01578">
        <ele>74.5</ele>
        <time>2022-04-24T14:15:45.403Z</time>
      </trkpt>
      <trkpt lat="49.07438" lon="2.01619">
        <ele>77.5</ele>
        <time>2022-04-24T14:16:10.107Z</time>
      </trkpt>
      <trkpt lat="49.07429" lon="2.01644">
        <ele>79</ele>
        <time>2022-04-24T14:16:24.262Z</time>
      </trkpt>
      <trkpt lat="49.07423" lon="2.01678">
        <ele>80.3</ele>
        <time>2022-04-24T14:16:42.606Z</time>
      </trkpt>
      <trkpt lat="49.07419" lon="2.01734">
        <ele>80</ele>
        <time>2022-04-24T14:17:10.970Z</time>
      </trkpt>
      <trkpt lat="49.07414" lon="2.01757">
        <ele>79.8</ele>
        <time>2022-04-24T14:17:23.384Z</time>
      </trkpt>
      <trkpt lat="49.07407" lon="2.01771">
        <ele>79.3</ele>
        <time>2022-04-24T14:17:32.482Z</time>
      </trkpt>
      <trkpt lat="49.07389" lon="2.01815">
        <ele>77.8</ele>
        <time>2022-04-24T14:18:00.085Z</time>
      </trkpt>
      <trkpt lat="49.07334" lon="2.0193">
        <ele>77</ele>
        <time>2022-04-24T14:19:15.595Z</time>
      </trkpt>
      <trkpt lat="49.07318" lon="2.01993">
        <ele>75.8</ele>
        <time>2022-04-24T14:19:50.181Z</time>
      </trkpt>
      <trkpt lat="49.07315" lon="2.02008">
        <ele>75.8</ele>
        <time>2022-04-24T14:19:58.177Z</time>
      </trkpt>
      <trkpt lat="49.07305" lon="2.02067">
        <ele>75.3</ele>
        <time>2022-04-24T14:20:29.387Z</time>
      </trkpt>
      <trkpt lat="49.07277" lon="2.02319">
        <ele>76</ele>
        <time>2022-04-24T14:22:40.380Z</time>
      </trkpt>
      <trkpt lat="49.07269" lon="2.02356">
        <ele>77.5</ele>
        <time>2022-04-24T14:23:00.158Z</time>
      </trkpt>
      <trkpt lat="49.07274" lon="2.02373">
        <ele>76.8</ele>
        <time>2022-04-24T14:23:09.788Z</time>
      </trkpt>
      <trkpt lat="49.07296" lon="2.02453">
        <ele>73.8</ele>
        <time>2022-04-24T14:23:54.338Z</time>
      </trkpt>
      <trkpt lat="49.07296" lon="2.02473">
        <ele>72.8</ele>
        <time>2022-04-24T14:24:05.403Z</time>
      </trkpt>
      <trkpt lat="49.07296" lon="2.02517">
        <ele>71</ele>
        <time>2022-04-24T14:24:28.890Z</time>
      </trkpt>
      <trkpt lat="49.07291" lon="2.0258">
        <ele>68.5</ele>
        <time>2022-04-24T14:25:03.720Z</time>
      </trkpt>
      <trkpt lat="49.07288" lon="2.02639">
        <ele>63.8</ele>
        <time>2022-04-24T14:25:35.627Z</time>
      </trkpt>
      <trkpt lat="49.07285" lon="2.02652">
        <ele>62.8</ele>
        <time>2022-04-24T14:25:42.532Z</time>
      </trkpt>
      <trkpt lat="49.07285" lon="2.02655">
        <ele>62.5</ele>
        <time>2022-04-24T14:25:44.309Z</time>
      </trkpt>
      <trkpt lat="49.07324" lon="2.02705">
        <ele>57.5</ele>
        <time>2022-04-24T14:26:24.402Z</time>
      </trkpt>
      <trkpt lat="49.07344" lon="2.02755">
        <ele>52.3</ele>
        <time>2022-04-24T14:26:55.230Z</time>
      </trkpt>
      <trkpt lat="49.07346" lon="2.02763">
        <ele>51.5</ele>
        <time>2022-04-24T14:26:59.231Z</time>
      </trkpt>
      <trkpt lat="49.0736" lon="2.02818">
        <ele>46.8</ele>
        <time>2022-04-24T14:27:28.042Z</time>
      </trkpt>
      <trkpt lat="49.07374" lon="2.02887">
        <ele>43.5</ele>
        <time>2022-04-24T14:28:03.097Z</time>
      </trkpt>
      <trkpt lat="49.07384" lon="2.02938">
        <ele>41.8</ele>
        <time>2022-04-24T14:28:28.875Z</time>
      </trkpt>
      <trkpt lat="49.07384" lon="2.02938">
        <ele>41.5</ele>
        <time>2022-04-24T14:28:29.226Z</time>
      </trkpt>
      <trkpt lat="49.07386" lon="2.02946">
        <ele>41.5</ele>
        <time>2022-04-24T14:28:33.164Z</time>
      </trkpt>
      <trkpt lat="49.07388" lon="2.02949">
        <ele>41.5</ele>
        <time>2022-04-24T14:28:35.543Z</time>
      </trkpt>
      <trkpt lat="49.0739" lon="2.02951">
        <ele>41.5</ele>
        <time>2022-04-24T14:28:37.456Z</time>
      </trkpt>
      <trkpt lat="49.07399" lon="2.02948">
        <ele>41.5</ele>
        <time>2022-04-24T14:28:44.186Z</time>
      </trkpt>
      <trkpt lat="49.07411" lon="2.0294">
        <ele>41.5</ele>
        <time>2022-04-24T14:28:54.138Z</time>
      </trkpt>
      <trkpt lat="49.07416" lon="2.02937">
        <ele>41.8</ele>
        <time>2022-04-24T14:28:58.079Z</time>
      </trkpt>
      <trkpt lat="49.07441" lon="2.02918">
        <ele>41.5</ele>
        <time>2022-04-24T14:29:18.613Z</time>
      </trkpt>
      <trkpt lat="49.07455" lon="2.02907">
        <ele>41.5</ele>
        <time>2022-04-24T14:29:30.295Z</time>
      </trkpt>
      <trkpt lat="49.07463" lon="2.02901">
        <ele>41.5</ele>
        <time>2022-04-24T14:29:37.510Z</time>
      </trkpt>
      <trkpt lat="49.07472" lon="2.02897">
        <ele>41.3</ele>
        <time>2022-04-24T14:29:44.514Z</time>
      </trkpt>
      <trkpt lat="49.0748" lon="2.02897">
        <ele>41</ele>
        <time>2022-04-24T14:29:50.579Z</time>
      </trkpt>
      <trkpt lat="49.07486" lon="2.029">
        <ele>41</ele>
        <time>2022-04-24T14:29:54.691Z</time>
      </trkpt>
      <trkpt lat="49.07488" lon="2.02901">
        <ele>41</ele>
        <time>2022-04-24T14:29:56.739Z</time>
      </trkpt>
      <trkpt lat="49.07491" lon="2.02903">
        <ele>40.8</ele>
        <time>2022-04-24T14:29:59.364Z</time>
      </trkpt>
      <trkpt lat="49.07499" lon="2.02908">
        <ele>40.8</ele>
        <time>2022-04-24T14:30:07.405Z</time>
      </trkpt>
      <trkpt lat="49.07505" lon="2.02912">
        <ele>41</ele>
        <time>2022-04-24T14:30:13.814Z</time>
      </trkpt>
      <trkpt lat="49.07513" lon="2.02917">
        <ele>41.3</ele>
        <time>2022-04-24T14:30:23.086Z</time>
      </trkpt>
      <trkpt lat="49.07514" lon="2.02915">
        <ele>41.3</ele>
        <time>2022-04-24T14:30:23.986Z</time>
      </trkpt>
      <trkpt lat="49.07515" lon="2.0291">
        <ele>41.3</ele>
        <time>2022-04-24T14:30:27.518Z</time>
      </trkpt>
      <trkpt lat="49.07525" lon="2.02893">
        <ele>41.3</ele>
        <time>2022-04-24T14:30:42.421Z</time>
      </trkpt>
      <trkpt lat="49.07527" lon="2.02892">
        <ele>41.3</ele>
        <time>2022-04-24T14:30:44.672Z</time>
      </trkpt>
      <trkpt lat="49.07528" lon="2.02889">
        <ele>41.3</ele>
        <time>2022-04-24T14:30:46.533Z</time>
      </trkpt>
      <trkpt lat="49.07529" lon="2.0288">
        <ele>41.3</ele>
        <time>2022-04-24T14:30:52.928Z</time>
      </trkpt>
      <trkpt lat="49.07543" lon="2.02813">
        <ele>41.3</ele>
        <time>2022-04-24T14:31:38.488Z</time>
      </trkpt>
      <trkpt lat="49.07562" lon="2.02719">
        <ele>41</ele>
        <time>2022-04-24T14:32:49.436Z</time>
      </trkpt>
      <trkpt lat="49.07569" lon="2.02684">
        <ele>41</ele>
        <time>2022-04-24T14:33:15.762Z</time>
      </trkpt>
      <trkpt lat="49.07581" lon="2.02613">
        <ele>41</ele>
        <time>2022-04-24T14:34:08.078Z</time>
      </trkpt>
      <trkpt lat="49.07583" lon="2.02582">
        <ele>40.8</ele>
        <time>2022-04-24T14:34:30.949Z</time>
      </trkpt>
      <trkpt lat="49.0759" lon="2.02546">
        <ele>41</ele>
        <time>2022-04-24T14:34:50.685Z</time>
      </trkpt>
      <trkpt lat="49.07583" lon="2.02582">
        <ele>40.8</ele>
        <time>2022-04-24T14:35:10.421Z</time>
      </trkpt>
      <trkpt lat="49.07581" lon="2.02613">
        <ele>41</ele>
        <time>2022-04-24T14:35:27.633Z</time>
      </trkpt>
      <trkpt lat="49.07569" lon="2.02684">
        <ele>41</ele>
        <time>2022-04-24T14:36:07.005Z</time>
      </trkpt>
      <trkpt lat="49.07543" lon="2.02813">
        <ele>41.3</ele>
        <time>2022-04-24T14:37:20.211Z</time>
      </trkpt>
      <trkpt lat="49.07528" lon="2.02889">
        <ele>41.3</ele>
        <time>2022-04-24T14:38:03.290Z</time>
      </trkpt>
      <trkpt lat="49.07527" lon="2.02892">
        <ele>41.3</ele>
        <time>2022-04-24T14:38:04.833Z</time>
      </trkpt>
      <trkpt lat="49.07525" lon="2.02893">
        <ele>41.3</ele>
        <time>2022-04-24T14:38:06.699Z</time>
      </trkpt>
      <trkpt lat="49.07515" lon="2.0291">
        <ele>41.3</ele>
        <time>2022-04-24T14:38:19.056Z</time>
      </trkpt>
      <trkpt lat="49.07513" lon="2.02917">
        <ele>41.3</ele>
        <time>2022-04-24T14:38:22.728Z</time>
      </trkpt>
      <trkpt lat="49.07523" lon="2.0292">
        <ele>41.5</ele>
        <time>2022-04-24T14:38:30.700Z</time>
      </trkpt>
      <trkpt lat="49.07531" lon="2.02922">
        <ele>41.5</ele>
        <time>2022-04-24T14:38:37.868Z</time>
      </trkpt>
      <trkpt lat="49.07539" lon="2.02923">
        <ele>41.8</ele>
        <time>2022-04-24T14:38:44.086Z</time>
      </trkpt>
      <trkpt lat="49.07545" lon="2.02923">
        <ele>42</ele>
        <time>2022-04-24T14:38:49.293Z</time>
      </trkpt>
      <trkpt lat="49.07551" lon="2.02922">
        <ele>42</ele>
        <time>2022-04-24T14:38:53.975Z</time>
      </trkpt>
      <trkpt lat="49.07589" lon="2.02909">
        <ele>43.3</ele>
        <time>2022-04-24T14:39:26.245Z</time>
      </trkpt>
      <trkpt lat="49.07635" lon="2.02893">
        <ele>47.5</ele>
        <time>2022-04-24T14:40:05.668Z</time>
      </trkpt>
      <trkpt lat="49.07649" lon="2.02892">
        <ele>48.8</ele>
        <time>2022-04-24T14:40:16.925Z</time>
      </trkpt>
      <trkpt lat="49.07656" lon="2.02893">
        <ele>49.3</ele>
        <time>2022-04-24T14:40:23.050Z</time>
      </trkpt>
      <trkpt lat="49.0766" lon="2.02895">
        <ele>49.8</ele>
        <time>2022-04-24T14:40:26.255Z</time>
      </trkpt>
      <trkpt lat="49.07673" lon="2.02902">
        <ele>51</ele>
        <time>2022-04-24T14:40:37.646Z</time>
      </trkpt>
      <trkpt lat="49.07701" lon="2.0294">
        <ele>54.5</ele>
        <time>2022-04-24T14:41:08.465Z</time>
      </trkpt>
      <trkpt lat="49.0772" lon="2.02982">
        <ele>57.3</ele>
        <time>2022-04-24T14:41:36.383Z</time>
      </trkpt>
      <trkpt lat="49.07727" lon="2.02999">
        <ele>58.5</ele>
        <time>2022-04-24T14:41:47.434Z</time>
      </trkpt>
      <trkpt lat="49.07735" lon="2.0302">
        <ele>59.5</ele>
        <time>2022-04-24T14:42:00.329Z</time>
      </trkpt>
      <trkpt lat="49.07745" lon="2.03029">
        <ele>61</ele>
        <time>2022-04-24T14:42:09.914Z</time>
      </trkpt>
      <trkpt lat="49.07748" lon="2.0303">
        <ele>61.5</ele>
        <time>2022-04-24T14:42:12.731Z</time>
      </trkpt>
      <trkpt lat="49.07759" lon="2.03035">
        <ele>62</ele>
        <time>2022-04-24T14:42:21.796Z</time>
      </trkpt>
      <trkpt lat="49.0777" lon="2.03039">
        <ele>62.5</ele>
        <time>2022-04-24T14:42:31.035Z</time>
      </trkpt>
      <trkpt lat="49.07774" lon="2.03041">
        <ele>62.8</ele>
        <time>2022-04-24T14:42:34.546Z</time>
      </trkpt>
      <trkpt lat="49.07857" lon="2.03073">
        <ele>66.5</ele>
        <time>2022-04-24T14:43:45.721Z</time>
      </trkpt>
      <trkpt lat="49.07889" lon="2.0308">
        <ele>67.8</ele>
        <time>2022-04-24T14:44:12.228Z</time>
      </trkpt>
      <trkpt lat="49.07901" lon="2.0308">
        <ele>68.3</ele>
        <time>2022-04-24T14:44:22.312Z</time>
      </trkpt>
      <trkpt lat="49.07912" lon="2.03079">
        <ele>68.8</ele>
        <time>2022-04-24T14:44:31.503Z</time>
      </trkpt>
      <trkpt lat="49.07949" lon="2.03077">
        <ele>70.3</ele>
        <time>2022-04-24T14:45:01.526Z</time>
      </trkpt>
      <trkpt lat="49.07979" lon="2.03082">
        <ele>71.8</ele>
        <time>2022-04-24T14:45:26.547Z</time>
      </trkpt>
      <trkpt lat="49.07992" lon="2.03088">
        <ele>72.5</ele>
        <time>2022-04-24T14:45:37.727Z</time>
      </trkpt>
      <trkpt lat="49.08001" lon="2.03077">
        <ele>73</ele>
        <time>2022-04-24T14:45:47.124Z</time>
      </trkpt>
      <trkpt lat="49.08011" lon="2.03073">
        <ele>73.3</ele>
        <time>2022-04-24T14:45:56.162Z</time>
      </trkpt>
      <trkpt lat="49.08049" lon="2.03017">
        <ele>74</ele>
        <time>2022-04-24T14:46:39.598Z</time>
      </trkpt>
      <trkpt lat="49.08104" lon="2.02934">
        <ele>75.3</ele>
        <time>2022-04-24T14:47:43.407Z</time>
      </trkpt>
      <trkpt lat="49.08128" lon="2.02916">
        <ele>76.5</ele>
        <time>2022-04-24T14:48:05.655Z</time>
      </trkpt>
      <trkpt lat="49.08131" lon="2.02908">
        <ele>76</ele>
        <time>2022-04-24T14:48:10.618Z</time>
      </trkpt>
      <trkpt lat="49.08128" lon="2.02916">
        <ele>76.5</ele>
        <time>2022-04-24T14:48:15.581Z</time>
      </trkpt>
      <trkpt lat="49.08104" lon="2.02934">
        <ele>75.3</ele>
        <time>2022-04-24T14:48:37.339Z</time>
      </trkpt>
      <trkpt lat="49.08049" lon="2.03017">
        <ele>74</ele>
        <time>2022-04-24T14:49:39.743Z</time>
      </trkpt>
      <trkpt lat="49.08011" lon="2.03073">
        <ele>73.3</ele>
        <time>2022-04-24T14:50:22.222Z</time>
      </trkpt>
      <trkpt lat="49.08001" lon="2.03077">
        <ele>73</ele>
        <time>2022-04-24T14:50:31.061Z</time>
      </trkpt>
      <trkpt lat="49.07992" lon="2.03088">
        <ele>72.5</ele>
        <time>2022-04-24T14:50:40.251Z</time>
      </trkpt>
      <trkpt lat="49.07979" lon="2.03082">
        <ele>71.8</ele>
        <time>2022-04-24T14:50:51.184Z</time>
      </trkpt>
      <trkpt lat="49.07949" lon="2.03077">
        <ele>70.3</ele>
        <time>2022-04-24T14:51:15.654Z</time>
      </trkpt>
      <trkpt lat="49.07912" lon="2.03079">
        <ele>68.8</ele>
        <time>2022-04-24T14:51:45.015Z</time>
      </trkpt>
      <trkpt lat="49.07901" lon="2.0308">
        <ele>68.3</ele>
        <time>2022-04-24T14:51:54.003Z</time>
      </trkpt>
      <trkpt lat="49.07889" lon="2.0308">
        <ele>67.8</ele>
        <time>2022-04-24T14:52:03.865Z</time>
      </trkpt>
      <trkpt lat="49.07857" lon="2.03073">
        <ele>66.5</ele>
        <time>2022-04-24T14:52:29.788Z</time>
      </trkpt>
      <trkpt lat="49.07774" lon="2.03041">
        <ele>62.8</ele>
        <time>2022-04-24T14:53:39.395Z</time>
      </trkpt>
      <trkpt lat="49.0777" lon="2.03039">
        <ele>62.5</ele>
        <time>2022-04-24T14:53:42.829Z</time>
      </trkpt>
      <trkpt lat="49.07759" lon="2.03035">
        <ele>62</ele>
        <time>2022-04-24T14:53:51.865Z</time>
      </trkpt>
      <trkpt lat="49.07748" lon="2.0303">
        <ele>61.5</ele>
        <time>2022-04-24T14:54:00.731Z</time>
      </trkpt>
      <trkpt lat="49.07745" lon="2.03029">
        <ele>61</ele>
        <time>2022-04-24T14:54:03.486Z</time>
      </trkpt>
      <trkpt lat="49.07735" lon="2.0302">
        <ele>59.5</ele>
        <time>2022-04-24T14:54:12.860Z</time>
      </trkpt>
      <trkpt lat="49.07727" lon="2.02999">
        <ele>58.5</ele>
        <time>2022-04-24T14:54:25.471Z</time>
      </trkpt>
      <trkpt lat="49.0772" lon="2.02982">
        <ele>57.3</ele>
        <time>2022-04-24T14:54:36.279Z</time>
      </trkpt>
      <trkpt lat="49.07701" lon="2.0294">
        <ele>54.5</ele>
        <time>2022-04-24T14:55:03.582Z</time>
      </trkpt>
      <trkpt lat="49.07673" lon="2.02902">
        <ele>51</ele>
        <time>2022-04-24T14:55:33.722Z</time>
      </trkpt>
      <trkpt lat="49.0766" lon="2.02895">
        <ele>49.8</ele>
        <time>2022-04-24T14:55:44.862Z</time>
      </trkpt>
      <trkpt lat="49.07656" lon="2.02893">
        <ele>49.3</ele>
        <time>2022-04-24T14:55:47.996Z</time>
      </trkpt>
      <trkpt lat="49.07649" lon="2.02892">
        <ele>48.8</ele>
        <time>2022-04-24T14:55:53.986Z</time>
      </trkpt>
      <trkpt lat="49.07651" lon="2.02874">
        <ele>48.5</ele>
        <time>2022-04-24T14:56:03.511Z</time>
      </trkpt>
      <trkpt lat="49.07657" lon="2.02843">
        <ele>48.5</ele>
        <time>2022-04-24T14:56:20.773Z</time>
      </trkpt>
      <trkpt lat="49.07665" lon="2.0281">
        <ele>47.8</ele>
        <time>2022-04-24T14:56:39.278Z</time>
      </trkpt>
      <trkpt lat="49.0767" lon="2.02785">
        <ele>47</ele>
        <time>2022-04-24T14:56:53.497Z</time>
      </trkpt>
      <trkpt lat="49.07673" lon="2.02756">
        <ele>45.8</ele>
        <time>2022-04-24T14:57:08.926Z</time>
      </trkpt>
      <trkpt lat="49.07685" lon="2.02711">
        <ele>44.8</ele>
        <time>2022-04-24T14:57:34.684Z</time>
      </trkpt>
      <trkpt lat="49.07688" lon="2.02702">
        <ele>44.5</ele>
        <time>2022-04-24T14:57:40.003Z</time>
      </trkpt>
      <trkpt lat="49.0769" lon="2.02644">
        <ele>43</ele>
        <time>2022-04-24T14:58:10.951Z</time>
      </trkpt>
      <trkpt lat="49.07687" lon="2.02622">
        <ele>43</ele>
        <time>2022-04-24T14:58:22.626Z</time>
      </trkpt>
      <trkpt lat="49.07682" lon="2.02601">
        <ele>43</ele>
        <time>2022-04-24T14:58:34.226Z</time>
      </trkpt>
      <trkpt lat="49.07681" lon="2.02596">
        <ele>43</ele>
        <time>2022-04-24T14:58:37.576Z</time>
      </trkpt>
      <trkpt lat="49.07654" lon="2.02611">
        <ele>42.3</ele>
        <time>2022-04-24T14:59:00.687Z</time>
      </trkpt>
      <trkpt lat="49.07641" lon="2.02617">
        <ele>42</ele>
        <time>2022-04-24T14:59:11.619Z</time>
      </trkpt>
      <trkpt lat="49.07622" lon="2.02619">
        <ele>41.5</ele>
        <time>2022-04-24T14:59:27.321Z</time>
      </trkpt>
      <trkpt lat="49.07599" lon="2.02617">
        <ele>41.3</ele>
        <time>2022-04-24T14:59:45.373Z</time>
      </trkpt>
      <trkpt lat="49.07581" lon="2.02613">
        <ele>41</ele>
        <time>2022-04-24T14:59:59.886Z</time>
      </trkpt>
      <trkpt lat="49.07581" lon="2.02613">
        <ele>41</ele>
        <time>2022-04-24T15:00:00.615Z</time>
      </trkpt>
      <trkpt lat="49.07583" lon="2.02582">
        <ele>40.8</ele>
        <time>2022-04-24T15:00:17.446Z</time>
      </trkpt>
      <trkpt lat="49.0759" lon="2.02543">
        <ele>41</ele>
        <time>2022-04-24T15:00:38.886Z</time>
      </trkpt>
    </trkseg>
  </trk>
</gpx>